createdAt,value
2023-03-28T00:01:13.355Z,99233.91
2023-03-28T00:03:40.684Z,99230.53
2023-03-28T00:06:11.321Z,99240.88
2023-03-28T00:08:41.959Z,99233.03
2023-03-28T00:11:11.701Z,99235.84
2023-03-28T00:13:38.341Z,99246.94
2023-03-28T00:16:08.927Z,99248.81
2023-03-28T00:18:39.015Z,99250.38
2023-03-28T00:21:17.900Z,99252.91
2023-03-28T00:23:44.504Z,99255.50
2023-03-28T00:26:13.118Z,99256.31
2023-03-28T00:28:39.677Z,99251.91
2023-03-28T00:31:07.778Z,99253.69
2023-03-28T00:33:34.732Z,99251.91
2023-03-28T00:36:01.513Z,99255.50
2023-03-28T00:38:28.939Z,99265.28
2023-03-28T00:40:57.917Z,99253.84
2023-03-28T00:43:46.989Z,99275.50
2023-03-28T00:46:34.231Z,99270.25
2023-03-28T00:49:14.291Z,99279.19
2023-03-28T00:51:47.197Z,99282.53
2023-03-28T00:54:18.751Z,99285.28
2023-03-28T00:56:48.808Z,99297.41
2023-03-28T00:59:19.808Z,99287.06
2023-03-28T01:01:47.134Z,99297.31
2023-03-28T01:04:22.107Z,99303.97
2023-03-28T01:06:54.592Z,99295.25
2023-03-28T01:09:24.192Z,99296.78
2023-03-28T01:11:53.731Z,99297.72
2023-03-28T01:14:23.409Z,99297.63
2023-03-28T01:16:51.239Z,99303.03
2023-03-28T01:19:21.890Z,99309.31
2023-03-28T01:22:19.330Z,99306.91
2023-03-28T01:25:04.507Z,99310.63
2023-03-28T01:28:05.461Z,99310.72
2023-03-28T01:30:54.717Z,99317.75
2023-03-28T01:33:54.707Z,99327.41
2023-03-28T01:36:39.988Z,99330.09
2023-03-28T01:39:29.207Z,99327.53
2023-03-28T01:42:14.451Z,99327.41
2023-03-28T01:45:06.336Z,99336.78
2023-03-28T01:47:49.105Z,99338.56
2023-03-28T01:50:22.927Z,99338.56
2023-03-28T01:53:07.733Z,99336.94
2023-03-28T01:55:41.541Z,99337.91
2023-03-28T01:58:35.750Z,99346.41
2023-03-28T02:01:08.020Z,99349.84
2023-03-28T02:03:42.137Z,99352.28
2023-03-28T02:06:10.671Z,99348.78
2023-03-28T02:08:41.521Z,99345.19
2023-03-28T02:11:09.938Z,99346.72
2023-03-28T02:13:54.371Z,99346.50
2023-03-28T02:16:23.212Z,99347.91
2023-03-28T02:18:55.104Z,99347.00
2023-03-28T02:21:25.360Z,99348.72
2023-03-28T02:23:53.962Z,99357.44
2023-03-28T02:26:22.750Z,99358.34
2023-03-28T02:28:53.277Z,99351.91
2023-03-28T02:31:21.295Z,99351.63
2023-03-28T02:33:49.698Z,99352.31
2023-03-28T02:36:30.221Z,99351.25
2023-03-28T02:39:21.508Z,99348.69
2023-03-28T02:41:53.548Z,99350.53
2023-03-28T02:44:47.393Z,99354.75
2023-03-28T02:47:31.649Z,99352.78
2023-03-28T02:50:25.880Z,99358.19
2023-03-28T02:53:22.468Z,99361.97
2023-03-28T02:55:59.281Z,99366.53
2023-03-28T02:58:38.660Z,99364.75
2023-03-28T03:01:10.693Z,99371.91
2023-03-28T03:03:37.787Z,99367.53
2023-03-28T03:06:05.345Z,99368.53
2023-03-28T03:08:32.488Z,99374.84
2023-03-28T03:10:59.100Z,99370.31
2023-03-28T03:13:28.927Z,99368.72
2023-03-28T03:15:56.174Z,99365.22
2023-03-28T03:18:23.422Z,99380.06
2023-03-28T03:20:50.414Z,99375.66
2023-03-28T03:23:17.594Z,99372.28
2023-03-28T03:25:45.342Z,99377.41
2023-03-28T03:28:13.077Z,99380.94
2023-03-28T03:30:39.563Z,99379.13
2023-03-28T03:33:06.151Z,99380.75
2023-03-28T03:35:35.602Z,99385.16
2023-03-28T03:38:02.821Z,99385.97
2023-03-28T03:40:29.823Z,99393.94
2023-03-28T03:42:56.272Z,99396.56
2023-03-28T03:45:22.801Z,99392.16
2023-03-28T03:47:49.357Z,99392.22
2023-03-28T03:50:15.940Z,99398.44
2023-03-28T03:52:42.457Z,99398.97
2023-03-28T03:55:09.325Z,99404.97
2023-03-28T03:57:35.958Z,99413.63
2023-03-28T04:00:09.547Z,99406.69
2023-03-28T04:02:36.093Z,99411.72
2023-03-28T04:05:02.744Z,99420.50
2023-03-28T04:07:29.225Z,99408.34
2023-03-28T04:09:56.799Z,99406.63
2023-03-28T04:12:23.322Z,99413.94
2023-03-28T04:14:49.773Z,99413.63
2023-03-28T04:17:16.311Z,99423.44
2023-03-28T04:19:43.723Z,99427.63
2023-03-28T04:22:12.770Z,99430.84
2023-03-28T04:24:44.500Z,99433.59
2023-03-28T04:27:12.122Z,99429.66
2023-03-28T04:29:39.288Z,99432.91
2023-03-28T04:32:05.968Z,99438.56
2023-03-28T04:34:33.933Z,99432.69
2023-03-28T04:37:02.690Z,99443.97
2023-03-28T04:39:30.788Z,99441.34
2023-03-28T04:42:01.959Z,99439.78
2023-03-28T04:44:29.500Z,99440.84
2023-03-28T04:46:56.560Z,99449.69
2023-03-28T04:49:23.260Z,99450.53
2023-03-28T04:51:53.013Z,99450.53
2023-03-28T04:54:19.911Z,99451.41
2023-03-28T04:56:50.299Z,99461.84
2023-03-28T04:59:17.762Z,99460.22
2023-03-28T05:01:49.309Z,99468.13
2023-03-28T05:04:20.287Z,99468.19
2023-03-28T05:06:48.709Z,99468.44
2023-03-28T05:09:19.492Z,99471.88
2023-03-28T05:11:46.420Z,99473.72
2023-03-28T05:14:12.964Z,99477.22
2023-03-28T05:16:39.490Z,99477.41
2023-03-28T05:19:06.699Z,99477.41
2023-03-28T05:21:33.241Z,99480.97
2023-03-28T05:23:59.713Z,99489.88
2023-03-28T05:26:27.948Z,99496.09
2023-03-28T05:29:00.068Z,99499.38
2023-03-28T05:31:28.425Z,99499.59
2023-03-28T05:33:55.586Z,99504.75
2023-03-28T05:36:22.157Z,99513.53
2023-03-28T05:38:48.901Z,99514.47
2023-03-28T05:41:16.012Z,99520.47
2023-03-28T05:43:42.549Z,99516.91
2023-03-28T05:46:12.382Z,99522.31
2023-03-28T05:48:39.161Z,99518.69
2023-03-28T05:51:06.198Z,99524.88
2023-03-28T05:53:32.723Z,99529.19
2023-03-28T05:55:59.233Z,99528.25
2023-03-28T05:58:25.968Z,99527.41
2023-03-28T06:00:52.499Z,99531.03
2023-03-28T06:03:19.089Z,99531.03
2023-03-28T06:05:45.869Z,99542.38
2023-03-28T06:08:12.440Z,99531.94
2023-03-28T06:10:39.707Z,99532.75
2023-03-28T06:13:06.238Z,99538.94
2023-03-28T06:15:33.362Z,99537.28
2023-03-28T06:18:00.050Z,99537.38
2023-03-28T06:20:26.696Z,99538.38
2023-03-28T06:22:53.279Z,99542.06
2023-03-28T06:25:19.788Z,99551.81
2023-03-28T06:27:46.261Z,99552.63
2023-03-28T06:30:13.479Z,99555.50
2023-03-28T06:32:39.956Z,99561.75
2023-03-28T06:35:07.121Z,99560.84
2023-03-28T06:37:33.578Z,99562.03
2023-03-28T06:40:00.212Z,99563.94
2023-03-28T06:42:27.146Z,99571.81
2023-03-28T06:44:53.663Z,99568.31
2023-03-28T06:47:20.830Z,99566.81
2023-03-28T06:49:47.336Z,99579.22
2023-03-28T06:52:13.819Z,99576.03
2023-03-28T06:54:40.301Z,99578.84
2023-03-28T06:57:06.824Z,99579.91
2023-03-28T06:59:33.383Z,99584.56
2023-03-28T07:01:59.861Z,99587.94
2023-03-28T07:04:26.500Z,99590.16
2023-03-28T07:06:52.948Z,99593.34
2023-03-28T07:09:19.639Z,99600.13
2023-03-28T07:11:46.123Z,99600.13
2023-03-28T07:14:12.679Z,99607.25
2023-03-28T07:16:39.255Z,99586.44
2023-03-28T07:19:05.854Z,99600.19
2023-03-28T07:21:32.308Z,99595.94
2023-03-28T07:23:58.794Z,99603.91
2023-03-28T07:26:27.537Z,99603.06
2023-03-28T07:28:55.064Z,99605.13
2023-03-28T07:31:21.791Z,99611.66
2023-03-28T07:33:51.452Z,99615.50
2023-03-28T07:36:21.615Z,99613.94
2023-03-28T07:38:49.254Z,99612.38
2023-03-28T07:41:16.782Z,99621.06
2023-03-28T07:43:43.677Z,99625.13
2023-03-28T07:46:14.315Z,99642.38
2023-03-28T07:48:41.904Z,99632.81
2023-03-28T07:51:10.131Z,99637.53
2023-03-28T07:53:37.795Z,99636.06
2023-03-28T07:56:05.280Z,99634.44
2023-03-28T07:58:31.718Z,99640.69
2023-03-28T08:01:04.191Z,99647.47
2023-03-28T08:03:30.765Z,99643.13
2023-03-28T08:06:02.812Z,99639.38
2023-03-28T08:08:30.322Z,99647.31
2023-03-28T08:10:56.910Z,99644.00
2023-03-28T08:13:24.380Z,99646.56
2023-03-28T08:15:57.598Z,99645.00
2023-03-28T08:18:28.565Z,99641.91
2023-03-28T08:21:01.057Z,99637.50
2023-03-28T08:23:28.894Z,99636.88
2023-03-28T08:26:05.038Z,99647.72
2023-03-28T08:28:35.328Z,99650.28
2023-03-28T08:31:03.155Z,99647.66
2023-03-28T08:33:29.840Z,99647.38
2023-03-28T08:35:56.907Z,99645.47
2023-03-28T08:38:23.606Z,99638.97
2023-03-28T08:41:12.068Z,99657.53
2023-03-28T08:44:00.383Z,99650.09
2023-03-28T08:46:29.215Z,99649.25
2023-03-28T08:48:57.721Z,99648.75
2023-03-28T08:51:27.501Z,99651.97
2023-03-28T08:54:17.239Z,99653.66
2023-03-28T08:56:57.166Z,99644.94
2023-03-28T08:59:28.414Z,99658.81
2023-03-28T09:01:55.403Z,99661.16
2023-03-28T09:04:34.925Z,99665.50
2023-03-28T09:07:13.921Z,99661.53
2023-03-28T09:10:09.467Z,99664.97
2023-03-28T09:12:41.899Z,99665.78
2023-03-28T09:15:32.689Z,99667.31
2023-03-28T09:18:33.231Z,99668.75
2023-03-28T09:21:14.764Z,99666.63
2023-03-28T09:24:12.744Z,99672.13
2023-03-28T09:26:48.259Z,99663.88
2023-03-28T09:29:18.899Z,99670.69
2023-03-28T09:31:47.971Z,99677.28
2023-03-28T09:34:28.937Z,99674.06
2023-03-28T09:37:01.076Z,99680.72
2023-03-28T09:39:33.451Z,99682.16
2023-03-28T09:42:05.261Z,99682.06
2023-03-28T09:44:51.308Z,99687.69
2023-03-28T09:47:21.363Z,99683.13
2023-03-28T09:49:48.589Z,99675.63
2023-03-28T09:52:21.609Z,99682.69
2023-03-28T09:54:48.664Z,99672.31
2023-03-28T09:57:15.466Z,99687.00
2023-03-28T09:59:42.958Z,99670.31
2023-03-28T10:02:32.755Z,99686.09
2023-03-28T10:04:59.763Z,99674.75
2023-03-28T10:07:29.269Z,99683.31
2023-03-28T10:09:58.649Z,99674.72
2023-03-28T10:12:32.568Z,99681.75
2023-03-28T10:14:59.601Z,99677.56
2023-03-28T10:17:37.899Z,99682.16
2023-03-28T10:20:16.854Z,99683.09
2023-03-28T10:22:47.021Z,99682.13
2023-03-28T10:25:20.830Z,99682.09
2023-03-28T10:27:49.044Z,99683.69
2023-03-28T10:30:26.186Z,99675.19
2023-03-28T10:33:16.795Z,99675.09
2023-03-28T10:36:04.886Z,99681.06
2023-03-28T10:38:36.542Z,99681.16
2023-03-28T10:41:12.127Z,99678.78
2023-03-28T10:43:41.170Z,99674.91
2023-03-28T10:46:19.290Z,99680.63
2023-03-28T10:49:05.474Z,99673.44
2023-03-28T10:51:33.172Z,99686.44
2023-03-28T10:54:10.576Z,99681.13
2023-03-28T10:56:42.525Z,99682.31
2023-03-28T10:59:16.809Z,99687.38
2023-03-28T11:01:49.255Z,99686.88
2023-03-28T11:04:33.823Z,99686.75
2023-03-28T11:07:13.812Z,99688.25
2023-03-28T11:09:56.602Z,99682.31
2023-03-28T11:12:54.250Z,99687.13
2023-03-28T11:15:41.375Z,99688.75
2023-03-28T11:18:27.499Z,99693.06
2023-03-28T11:21:20.383Z,99685.97
2023-03-28T11:23:50.270Z,99685.03
2023-03-28T11:26:40.109Z,99694.59
2023-03-28T11:29:17.378Z,99691.72
2023-03-28T11:32:05.092Z,99686.44
2023-03-28T11:34:46.161Z,99686.53
2023-03-28T11:37:26.970Z,99684.22
2023-03-28T11:40:15.007Z,99683.69
2023-03-28T11:42:47.296Z,99677.50
2023-03-28T11:45:50.159Z,99680.97
2023-03-28T11:48:42.995Z,99671.88
2023-03-28T11:51:48.986Z,99669.84
2023-03-28T11:54:28.910Z,99675.44
2023-03-28T11:57:01.233Z,99675.28
2023-03-28T11:59:46.561Z,99673.47
2023-03-28T12:02:31.495Z,99667.03
2023-03-28T12:05:08.310Z,99666.00
2023-03-28T12:07:43.441Z,99666.00
2023-03-28T12:10:36.012Z,99661.47
2023-03-28T12:13:14.540Z,99651.84
2023-03-28T12:15:49.058Z,99660.09
2023-03-28T12:18:31.059Z,99652.19
2023-03-28T12:21:19.557Z,99645.63
2023-03-28T12:23:55.207Z,99646.66
2023-03-28T12:26:31.350Z,99647.56
2023-03-28T12:29:18.399Z,99636.56
2023-03-28T12:31:53.254Z,99637.50
2023-03-28T12:34:41.744Z,99635.53
2023-03-28T12:37:18.477Z,99635.59
2023-03-28T12:39:55.800Z,99634.97
2023-03-28T12:42:24.806Z,99634.31
2023-03-28T12:45:04.127Z,99627.56
2023-03-28T12:47:42.025Z,99626.78
2023-03-28T12:50:41.302Z,99628.50
2023-03-28T12:53:12.460Z,99626.81
2023-03-28T12:55:45.560Z,99630.03
2023-03-28T12:58:34.921Z,99627.38
2023-03-28T13:01:07.416Z,99632.09
2023-03-28T13:03:51.411Z,99621.53
2023-03-28T13:06:58.139Z,99631.22
2023-03-28T13:09:50.447Z,99631.81
2023-03-28T13:12:26.578Z,99628.41
2023-03-28T13:15:12.387Z,99620.94
2023-03-28T13:17:45.772Z,99628.59
2023-03-28T13:20:14.979Z,99617.28
2023-03-28T13:22:58.501Z,99621.84
2023-03-28T13:25:33.336Z,99617.47
2023-03-28T13:28:12.586Z,99617.56
2023-03-28T13:30:44.942Z,99615.28
2023-03-28T13:33:32.490Z,99614.31
2023-03-28T13:35:59.000Z,99616.97
2023-03-28T13:38:28.320Z,99616.78
2023-03-28T13:40:55.952Z,99608.81
2023-03-28T13:43:48.186Z,99603.47
2023-03-28T13:46:27.118Z,99601.53
2023-03-28T13:49:01.473Z,99599.00
2023-03-28T13:51:53.239Z,99596.34
2023-03-28T13:54:20.848Z,99588.78
2023-03-28T13:56:49.497Z,99585.81
2023-03-28T13:59:24.982Z,99582.16
2023-03-28T14:01:57.347Z,99576.06
2023-03-28T14:04:32.309Z,99567.41
2023-03-28T14:07:02.643Z,99570.53
2023-03-28T14:09:29.211Z,99565.59
2023-03-28T14:11:59.775Z,99567.44
2023-03-28T14:14:32.617Z,99558.72
2023-03-28T14:17:04.889Z,99574.59
2023-03-28T14:19:38.560Z,99560.69
2023-03-28T14:22:15.665Z,99563.31
2023-03-28T14:24:43.486Z,99556.88
2023-03-28T14:27:15.451Z,99553.19
2023-03-28T14:29:51.763Z,99558.06
2023-03-28T14:32:31.779Z,99549.97
2023-03-28T14:35:20.654Z,99550.00
2023-03-28T14:37:52.139Z,99535.22
2023-03-28T14:40:24.460Z,99543.78
2023-03-28T14:43:20.495Z,99547.38
2023-03-28T14:45:52.470Z,99537.00
2023-03-28T14:48:21.749Z,99541.44
2023-03-28T14:50:51.483Z,99528.44
2023-03-28T14:53:22.469Z,99529.13
2023-03-28T14:55:50.967Z,99519.28
2023-03-28T14:58:19.221Z,99530.63
2023-03-28T15:00:52.657Z,99512.13
2023-03-28T15:03:33.685Z,99514.69
2023-03-28T15:06:01.661Z,99526.88
2023-03-28T15:08:38.012Z,99518.09
2023-03-28T15:11:08.174Z,99520.63
2023-03-28T15:13:37.604Z,99526.59
2023-03-28T15:16:06.435Z,99520.47
2023-03-28T15:18:44.336Z,99519.28
2023-03-28T15:21:11.691Z,99512.09
2023-03-28T15:23:59.569Z,99509.41
2023-03-28T15:26:32.500Z,99498.88
2023-03-28T15:28:59.318Z,99495.25
2023-03-28T15:31:27.105Z,99488.28
2023-03-28T15:33:54.407Z,99489.19
2023-03-28T15:36:32.444Z,99483.06
2023-03-28T15:39:18.380Z,99484.81
2023-03-28T15:41:49.442Z,99471.59
2023-03-28T15:44:22.366Z,99470.69
2023-03-28T15:46:48.968Z,99468.88
2023-03-28T15:49:15.736Z,99467.19
2023-03-28T15:51:49.903Z,99468.97
2023-03-28T15:54:28.015Z,99462.03
2023-03-28T15:57:01.176Z,99462.03
2023-03-28T15:59:58.098Z,99447.97
2023-03-28T16:02:24.555Z,99456.78
2023-03-28T16:05:06.738Z,99449.69
2023-03-28T16:07:46.475Z,99443.53
2023-03-28T16:10:16.237Z,99440.03
2023-03-28T16:12:43.580Z,99440.03
2023-03-28T16:15:10.759Z,99432.03
2023-03-28T16:17:37.515Z,99439.09
2023-03-28T16:20:19.345Z,99440.00
2023-03-28T16:22:46.115Z,99428.53
2023-03-28T16:25:13.377Z,99434.59
2023-03-28T16:27:42.269Z,99431.88
2023-03-28T16:30:21.185Z,99434.47
2023-03-28T16:32:47.751Z,99426.50
2023-03-28T16:35:14.219Z,99436.97
2023-03-28T16:37:41.176Z,99430.72
2023-03-28T16:40:09.119Z,99432.44
2023-03-28T16:42:35.579Z,99431.44
2023-03-28T16:45:02.481Z,99427.00
2023-03-28T16:47:29.086Z,99426.97
2023-03-28T16:49:55.791Z,99420.75
2023-03-28T16:52:22.295Z,99426.78
2023-03-28T16:54:48.848Z,99432.81
2023-03-28T16:57:16.289Z,99430.13
2023-03-28T16:59:42.838Z,99430.91
2023-03-28T17:02:10.431Z,99427.31
2023-03-28T17:04:36.909Z,99427.25
2023-03-28T17:07:03.384Z,99427.22
2023-03-28T17:09:29.978Z,99433.34
2023-03-28T17:11:56.680Z,99426.13
2023-03-28T17:14:23.163Z,99433.94
2023-03-28T17:16:49.696Z,99429.44
2023-03-28T17:19:19.155Z,99428.50
2023-03-28T17:21:48.455Z,99425.69
2023-03-28T17:24:14.890Z,99421.16
2023-03-28T17:26:41.381Z,99417.66
2023-03-28T17:29:09.751Z,99408.78
2023-03-28T17:31:38.777Z,99412.16
2023-03-28T17:34:05.459Z,99402.41
2023-03-28T17:36:34.453Z,99405.03
2023-03-28T17:39:02.032Z,99404.97
2023-03-28T17:41:28.964Z,99408.22
2023-03-28T17:43:57.229Z,99411.59
2023-03-28T17:46:24.655Z,99406.25
2023-03-28T17:48:51.258Z,99394.84
2023-03-28T17:51:17.775Z,99391.28
2023-03-28T17:53:46.967Z,99391.28
2023-03-28T17:56:16.188Z,99383.38
2023-03-28T17:58:43.797Z,99383.31
2023-03-28T18:01:16.679Z,99383.94
2023-03-28T18:03:44.598Z,99380.41
2023-03-28T18:06:12.920Z,99378.69
2023-03-28T18:08:40.186Z,99383.84
2023-03-28T18:11:09.914Z,99376.72
2023-03-28T18:13:38.042Z,99374.22
2023-03-28T18:16:09.206Z,99366.34
2023-03-28T18:18:39.522Z,99355.75
2023-03-28T18:21:08.192Z,99364.59
2023-03-28T18:23:35.704Z,99361.97
2023-03-28T18:26:02.382Z,99353.25
2023-03-28T18:28:28.996Z,99355.97
2023-03-28T18:31:16.853Z,99362.19
2023-03-28T18:33:44.346Z,99370.91
2023-03-28T18:36:13.036Z,99355.16
2023-03-28T18:38:44.063Z,99364.88
2023-03-28T18:41:12.700Z,99357.06
2023-03-28T18:43:42.041Z,99357.91
2023-03-28T18:46:09.996Z,99360.47
2023-03-28T18:48:36.845Z,99359.50
2023-03-28T18:51:06.201Z,99367.28
2023-03-28T18:53:33.933Z,99361.09
2023-03-28T18:56:01.315Z,99368.00
2023-03-28T18:58:28.424Z,99364.50
2023-03-28T19:01:00.324Z,99351.38
2023-03-28T19:03:27.954Z,99350.47
2023-03-28T19:05:59.344Z,99343.47
2023-03-28T19:08:26.588Z,99351.38
2023-03-28T19:10:54.203Z,99337.31
2023-03-28T19:13:20.717Z,99339.19
2023-03-28T19:15:47.409Z,99348.88
2023-03-28T19:18:13.905Z,99346.22
2023-03-28T19:20:40.870Z,99351.38
2023-03-28T19:23:07.707Z,99346.13
2023-03-28T19:25:34.273Z,99343.56
2023-03-28T19:28:00.955Z,99340.78
2023-03-28T19:30:29.224Z,99331.75
2023-03-28T19:32:55.769Z,99339.66
2023-03-28T19:35:26.232Z,99335.25
2023-03-28T19:37:52.755Z,99330.03
2023-03-28T19:40:19.296Z,99319.31
2023-03-28T19:42:46.013Z,99315.75
2023-03-28T19:45:12.876Z,99321.94
2023-03-28T19:47:39.396Z,99315.84
2023-03-28T19:50:06.657Z,99305.19
2023-03-28T19:52:36.153Z,99299.94
2023-03-28T19:55:02.633Z,99307.84
2023-03-28T19:57:29.145Z,99296.56
2023-03-28T19:59:55.957Z,99300.97
2023-03-28T20:02:22.539Z,99293.09
2023-03-28T20:04:49.156Z,99292.97
2023-03-28T20:07:19.185Z,99283.34
2023-03-28T20:09:51.247Z,99272.81
2023-03-28T20:12:18.874Z,99283.31
2023-03-28T20:14:46.140Z,99278.94
2023-03-28T20:17:13.034Z,99285.03
2023-03-28T20:19:39.859Z,99277.97
2023-03-28T20:22:07.400Z,99282.16
2023-03-28T20:24:34.796Z,99286.41
2023-03-28T20:27:01.967Z,99276.63
2023-03-28T20:29:28.792Z,99277.50
2023-03-28T20:31:55.340Z,99271.44
2023-03-28T20:34:21.922Z,99269.53
2023-03-28T20:36:49.655Z,99274.72
2023-03-28T20:39:16.881Z,99269.28
2023-03-28T20:41:45.553Z,99256.88
2023-03-28T20:44:16.541Z,99251.78
2023-03-28T20:46:43.220Z,99260.69
2023-03-28T20:49:10.773Z,99254.63
2023-03-28T20:51:39.333Z,99253.81
2023-03-28T20:54:06.491Z,99246.03
2023-03-28T20:56:33.004Z,99236.31
2023-03-28T20:58:59.688Z,99240.47
2023-03-28T21:01:30.460Z,99239.72
2023-03-28T21:04:02.129Z,99235.50
2023-03-28T21:06:30.410Z,99234.78
2023-03-28T21:08:59.798Z,99235.69
2023-03-28T21:11:28.859Z,99220.03
2023-03-28T21:13:56.604Z,99215.66
2023-03-28T21:16:23.957Z,99219.06
2023-03-28T21:18:50.566Z,99214.56
2023-03-28T21:21:19.173Z,99219.16
2023-03-28T21:23:46.777Z,99207.81
2023-03-28T21:26:16.256Z,99203.38
2023-03-28T21:28:43.372Z,99201.88
2023-03-28T21:31:15.887Z,99197.00
2023-03-28T21:33:42.844Z,99200.50
2023-03-28T21:36:16.031Z,99197.81
2023-03-28T21:38:44.455Z,99192.66
2023-03-28T21:41:15.112Z,99196.13
2023-03-28T21:43:42.032Z,99192.69
2023-03-28T21:46:09.397Z,99191.94
2023-03-28T21:48:36.656Z,99178.03
2023-03-28T21:51:04.559Z,99181.75
2023-03-28T21:53:34.127Z,99178.28
2023-03-28T21:56:00.753Z,99179.16
2023-03-28T21:58:30.060Z,99180.09
2023-03-28T22:00:56.969Z,99185.44
2023-03-28T22:03:24.698Z,99182.09
2023-03-28T22:05:52.512Z,99176.84
2023-03-28T22:08:19.921Z,99177.72
2023-03-28T22:10:52.590Z,99175.03
2023-03-28T22:13:20.296Z,99177.69
2023-03-28T22:15:46.939Z,99172.34
2023-03-28T22:18:13.685Z,99174.97
2023-03-28T22:20:43.629Z,99173.22
2023-03-28T22:23:10.765Z,99162.69
2023-03-28T22:25:38.424Z,99168.91
2023-03-28T22:28:09.974Z,99162.72
2023-03-28T22:30:38.659Z,99169.72
2023-03-28T22:33:07.153Z,99162.78
2023-03-28T22:35:33.995Z,99161.13
2023-03-28T22:38:04.497Z,99152.44
2023-03-28T22:40:31.819Z,99158.59
2023-03-28T22:42:58.452Z,99158.59
2023-03-28T22:45:28.949Z,99140.25
2023-03-28T22:47:58.424Z,99142.13
2023-03-28T22:50:25.885Z,99136.91
2023-03-28T22:52:52.965Z,99141.34
2023-03-28T22:55:22.177Z,99133.44
2023-03-28T22:57:51.246Z,99129.94
2023-03-28T23:00:18.430Z,99133.38
2023-03-28T23:02:44.983Z,99124.59
2023-03-28T23:05:12.656Z,99122.06
2023-03-28T23:07:41.349Z,99122.94
2023-03-28T23:10:12.129Z,99118.47
2023-03-28T23:12:38.620Z,99109.78
2023-03-28T23:15:05.592Z,99111.53
2023-03-28T23:17:32.265Z,99103.69
2023-03-28T23:20:00.441Z,99103.75
2023-03-28T23:22:26.949Z,99094.97
2023-03-28T23:24:53.435Z,99090.56
2023-03-28T23:27:19.948Z,99090.56
2023-03-28T23:29:46.644Z,99084.63
2023-03-28T23:32:13.154Z,99081.19
2023-03-28T23:34:40.286Z,99072.44
2023-03-28T23:37:07.120Z,99072.41
2023-03-28T23:39:33.659Z,99077.66
2023-03-28T23:42:03.710Z,99077.66
2023-03-28T23:44:34.137Z,99068.94
2023-03-28T23:47:00.915Z,99070.78
2023-03-28T23:49:27.601Z,99056.72
2023-03-28T23:51:54.196Z,99067.28
2023-03-28T23:54:21.023Z,99070.78
2023-03-28T23:56:49.200Z,99063.66
2023-03-28T23:59:16.888Z,99064.53
